createdAt,value
2023-03-13T00:01:53.186Z,18.28
2023-03-13T00:04:21.718Z,18.28
2023-03-13T00:06:49.900Z,18.28
2023-03-13T00:09:18.554Z,18.28
2023-03-13T00:11:47.595Z,18.28
2023-03-13T00:14:16.073Z,18.26
2023-03-13T00:16:44.209Z,18.25
2023-03-13T00:19:12.575Z,18.25
2023-03-13T00:21:41.630Z,18.24
2023-03-13T00:24:11.590Z,18.24
2023-03-13T00:26:39.504Z,18.24
2023-03-13T00:29:07.984Z,18.23
2023-03-13T00:31:36.309Z,18.22
2023-03-13T00:34:05.439Z,18.22
2023-03-13T00:36:35.167Z,18.20
2023-03-13T00:39:05.268Z,18.21
2023-03-13T00:41:36.799Z,18.22
2023-03-13T00:44:07.259Z,18.20
2023-03-13T00:46:35.342Z,18.21
2023-03-13T00:49:04.356Z,18.20
2023-03-13T00:51:35.810Z,18.20
2023-03-13T00:54:05.240Z,18.18
2023-03-13T00:56:34.326Z,18.19
2023-03-13T00:59:03.713Z,18.18
2023-03-13T01:01:50.442Z,18.17
2023-03-13T01:04:19.312Z,18.13
2023-03-13T01:06:47.497Z,18.13
2023-03-13T01:09:16.640Z,18.15
2023-03-13T01:11:45.626Z,18.10
2023-03-13T01:14:19.067Z,18.16
2023-03-13T01:16:47.909Z,18.17
2023-03-13T01:19:17.177Z,18.15
2023-03-13T01:21:47.043Z,18.12
2023-03-13T01:24:17.303Z,18.13
2023-03-13T01:26:46.169Z,18.13
2023-03-13T01:29:17.499Z,18.13
2023-03-13T01:31:46.034Z,18.12
2023-03-13T01:34:14.742Z,18.09
2023-03-13T01:36:43.924Z,18.07
2023-03-13T01:39:12.791Z,18.12
2023-03-13T01:41:40.991Z,18.11
2023-03-13T01:44:22.597Z,18.09
2023-03-13T01:46:51.045Z,18.09
2023-03-13T01:49:33.678Z,18.08
2023-03-13T01:52:10.167Z,18.08
2023-03-13T01:55:07.996Z,18.05
2023-03-13T01:57:41.942Z,18.01
2023-03-13T02:00:20.082Z,18.02
2023-03-13T02:02:51.806Z,18.05
2023-03-13T02:05:22.434Z,18.05
2023-03-13T02:07:57.954Z,18.04
2023-03-13T02:10:26.973Z,18.03
2023-03-13T02:12:59.636Z,18.04
2023-03-13T02:15:29.663Z,18.01
2023-03-13T02:17:58.460Z,18.05
2023-03-13T02:20:27.350Z,18.04
2023-03-13T02:23:24.493Z,18.03
2023-03-13T02:25:53.991Z,18.02
2023-03-13T02:28:34.047Z,18.03
2023-03-13T02:31:06.002Z,18.03
2023-03-13T02:33:40.879Z,17.99
2023-03-13T02:36:12.157Z,17.98
2023-03-13T02:38:55.883Z,18.02
2023-03-13T02:41:26.085Z,18.01
2023-03-13T02:43:56.360Z,18.01
2023-03-13T02:46:25.017Z,18.01
2023-03-13T02:48:57.336Z,17.99
2023-03-13T02:51:33.805Z,17.99
2023-03-13T02:54:07.651Z,17.99
2023-03-13T02:56:39.125Z,17.95
2023-03-13T02:59:08.040Z,17.96
2023-03-13T03:01:40.341Z,17.97
2023-03-13T03:04:08.568Z,17.97
2023-03-13T03:06:37.467Z,17.95
2023-03-13T03:09:06.639Z,17.96
2023-03-13T03:11:38.771Z,17.98
2023-03-13T03:14:12.701Z,17.94
2023-03-13T03:16:45.060Z,17.94
2023-03-13T03:19:13.711Z,17.94
2023-03-13T03:21:42.223Z,17.94
2023-03-13T03:24:10.527Z,17.94
2023-03-13T03:26:39.150Z,17.92
2023-03-13T03:29:13.571Z,17.92
2023-03-13T03:31:42.745Z,17.93
2023-03-13T03:34:11.038Z,17.92
2023-03-13T03:36:39.808Z,17.92
2023-03-13T03:39:08.042Z,17.92
2023-03-13T03:41:37.654Z,17.93
2023-03-13T03:44:07.161Z,17.91
2023-03-13T03:46:48.316Z,17.90
2023-03-13T03:49:16.839Z,17.90
2023-03-13T03:51:45.512Z,17.90
2023-03-13T03:54:14.613Z,17.91
2023-03-13T03:56:43.466Z,17.89
2023-03-13T03:59:12.636Z,17.86
2023-03-13T04:01:47.456Z,17.86
2023-03-13T04:04:21.015Z,17.86
2023-03-13T04:06:54.601Z,17.86
2023-03-13T04:09:22.986Z,17.89
2023-03-13T04:11:51.688Z,17.87
2023-03-13T04:14:19.988Z,17.87
2023-03-13T04:16:48.785Z,17.86
2023-03-13T04:19:17.280Z,17.86
2023-03-13T04:21:45.868Z,17.85
2023-03-13T04:24:18.229Z,17.86
2023-03-13T04:26:47.254Z,17.85
2023-03-13T04:29:16.434Z,17.80
2023-03-13T04:31:56.726Z,17.83
2023-03-13T04:34:33.753Z,17.83
2023-03-13T04:37:28.374Z,17.83
2023-03-13T04:40:09.926Z,17.85
2023-03-13T04:42:57.091Z,17.85
2023-03-13T04:45:56.473Z,17.85
2023-03-13T04:48:48.164Z,17.85
2023-03-13T04:51:33.640Z,17.83
2023-03-13T04:54:20.756Z,17.82
2023-03-13T04:57:03.804Z,17.83
2023-03-13T04:59:38.822Z,17.81
2023-03-13T05:02:39.550Z,17.81
2023-03-13T05:05:23.591Z,17.83
2023-03-13T05:08:12.066Z,17.86
2023-03-13T05:10:58.643Z,17.82
2023-03-13T05:13:45.536Z,17.82
2023-03-13T05:16:41.465Z,17.89
2023-03-13T05:19:32.395Z,17.92
2023-03-13T05:22:19.508Z,17.97
2023-03-13T05:25:14.017Z,18.00
2023-03-13T05:28:01.048Z,18.09
2023-03-13T05:30:52.343Z,18.12
2023-03-13T05:33:41.107Z,18.14
2023-03-13T05:36:44.583Z,18.15
2023-03-13T05:39:31.777Z,18.20
2023-03-13T05:42:38.599Z,18.15
2023-03-13T05:45:42.398Z,18.15
2023-03-13T05:48:36.809Z,18.15
2023-03-13T05:51:14.823Z,18.13
2023-03-13T05:54:15.591Z,18.12
2023-03-13T05:57:10.722Z,18.12
2023-03-13T06:00:16.249Z,18.12
2023-03-13T06:03:00.138Z,18.07
2023-03-13T06:05:36.231Z,18.08
2023-03-13T06:08:09.210Z,18.06
2023-03-13T06:10:38.430Z,18.06
2023-03-13T06:13:19.019Z,18.04
2023-03-13T06:15:57.784Z,18.04
2023-03-13T06:18:45.491Z,18.03
2023-03-13T06:21:14.676Z,18.04
2023-03-13T06:23:43.500Z,18.04
2023-03-13T06:26:11.702Z,18.03
2023-03-13T06:28:40.157Z,18.04
2023-03-13T06:31:08.739Z,18.02
2023-03-13T06:33:37.988Z,18.02
2023-03-13T06:36:06.643Z,18.00
2023-03-13T06:38:35.194Z,17.99
2023-03-13T06:41:03.470Z,18.02
2023-03-13T06:43:31.970Z,18.01
2023-03-13T06:46:04.406Z,17.97
2023-03-13T06:48:33.116Z,17.99
2023-03-13T06:51:01.237Z,18.01
2023-03-13T06:53:29.690Z,18.00
2023-03-13T06:56:02.082Z,18.00
2023-03-13T06:58:32.883Z,18.00
2023-03-13T07:01:11.179Z,17.98
2023-03-13T07:03:41.605Z,17.99
2023-03-13T07:06:13.472Z,17.94
2023-03-13T07:08:42.264Z,17.98
2023-03-13T07:11:12.752Z,17.97
2023-03-13T07:13:41.484Z,18.02
2023-03-13T07:16:12.565Z,18.02
2023-03-13T07:18:47.463Z,18.03
2023-03-13T07:21:15.639Z,18.01
2023-03-13T07:23:44.364Z,18.00
2023-03-13T07:26:15.267Z,17.99
2023-03-13T07:28:44.296Z,17.99
2023-03-13T07:31:24.326Z,17.99
2023-03-13T07:33:56.762Z,17.99
2023-03-13T07:36:25.135Z,17.99
2023-03-13T07:38:54.036Z,17.98
2023-03-13T07:41:22.282Z,17.98
2023-03-13T07:43:50.733Z,17.99
2023-03-13T07:46:20.276Z,17.98
2023-03-13T07:48:48.907Z,17.98
2023-03-13T07:51:33.375Z,18.00
2023-03-13T07:54:09.451Z,18.01
2023-03-13T07:56:37.640Z,18.01
2023-03-13T07:59:07.058Z,17.98
2023-03-13T08:01:35.872Z,18.00
2023-03-13T08:04:05.771Z,18.00
2023-03-13T08:06:37.605Z,17.95
2023-03-13T08:09:06.656Z,17.93
2023-03-13T08:11:34.938Z,17.98
2023-03-13T08:14:03.549Z,17.99
2023-03-13T08:16:34.671Z,17.98
2023-03-13T08:19:07.581Z,17.96
2023-03-13T08:21:37.264Z,17.95
2023-03-13T08:24:08.243Z,17.98
2023-03-13T08:26:38.361Z,17.99
2023-03-13T08:29:09.744Z,18.00
2023-03-13T08:31:48.651Z,18.01
2023-03-13T08:34:18.076Z,17.99
2023-03-13T08:36:46.733Z,18.01
2023-03-13T08:39:17.678Z,18.01
2023-03-13T08:41:46.776Z,17.99
2023-03-13T08:44:17.349Z,17.98
2023-03-13T08:46:45.643Z,18.02
2023-03-13T08:49:14.485Z,18.01
2023-03-13T08:51:42.698Z,17.99
2023-03-13T08:54:11.401Z,18.00
2023-03-13T08:56:41.243Z,17.97
2023-03-13T08:59:11.023Z,17.97
2023-03-13T09:01:39.463Z,17.98
2023-03-13T09:04:08.312Z,18.01
2023-03-13T09:06:38.595Z,17.99
2023-03-13T09:09:08.187Z,18.03
2023-03-13T09:11:37.763Z,18.01
2023-03-13T09:14:07.283Z,18.04
2023-03-13T09:16:36.027Z,18.03
2023-03-13T09:19:04.752Z,18.03
2023-03-13T09:21:34.793Z,18.03
2023-03-13T09:24:03.778Z,18.03
2023-03-13T09:26:32.096Z,18.05
2023-03-13T09:29:00.700Z,18.06
2023-03-13T09:31:31.511Z,18.09
2023-03-13T09:34:00.799Z,18.09
2023-03-13T09:36:29.393Z,18.03
2023-03-13T09:38:59.735Z,18.07
2023-03-13T09:41:39.622Z,18.05
2023-03-13T09:44:39.601Z,18.05
2023-03-13T09:47:25.024Z,18.00
2023-03-13T09:49:59.308Z,18.03
2023-03-13T09:52:32.275Z,18.04
2023-03-13T09:55:23.274Z,18.06
2023-03-13T09:57:57.434Z,18.04
2023-03-13T10:00:42.593Z,18.04
2023-03-13T10:03:29.749Z,18.01
2023-03-13T10:06:03.120Z,18.00
2023-03-13T10:08:33.283Z,17.96
2023-03-13T10:11:16.649Z,17.98
2023-03-13T10:13:48.778Z,18.03
2023-03-13T10:16:19.503Z,18.03
2023-03-13T10:18:52.417Z,17.99
2023-03-13T10:21:23.565Z,18.00
2023-03-13T10:24:14.028Z,18.04
2023-03-13T10:26:42.617Z,18.06
2023-03-13T10:29:30.918Z,18.06
2023-03-13T10:32:03.084Z,18.03
2023-03-13T10:34:57.248Z,18.02
2023-03-13T10:37:41.614Z,18.00
2023-03-13T10:40:21.379Z,18.01
2023-03-13T10:42:51.796Z,17.98
2023-03-13T10:45:25.076Z,17.94
2023-03-13T10:47:58.320Z,17.96
2023-03-13T10:50:27.930Z,18.00
2023-03-13T10:52:56.397Z,17.98
2023-03-13T10:55:26.135Z,17.97
2023-03-13T10:58:00.278Z,17.95
2023-03-13T11:00:39.333Z,18.00
2023-03-13T11:03:23.623Z,18.00
2023-03-13T11:05:58.237Z,17.95
2023-03-13T11:08:29.089Z,17.94
2023-03-13T11:10:59.827Z,17.95
2023-03-13T11:13:37.592Z,18.01
2023-03-13T11:16:28.751Z,18.05
2023-03-13T11:19:25.299Z,18.06
2023-03-13T11:22:14.817Z,18.00
2023-03-13T11:25:10.121Z,18.01
2023-03-13T11:27:59.729Z,18.00
2023-03-13T11:31:06.135Z,18.03
2023-03-13T11:33:53.676Z,18.02
2023-03-13T11:36:34.519Z,18.07
2023-03-13T11:39:39.399Z,18.15
2023-03-13T11:42:18.123Z,18.13
2023-03-13T11:45:01.139Z,18.18
2023-03-13T11:47:38.931Z,18.12
2023-03-13T11:50:51.940Z,18.08
2023-03-13T11:53:34.301Z,18.07
2023-03-13T11:56:22.231Z,18.16
2023-03-13T11:59:29.786Z,18.14
2023-03-13T12:02:32.137Z,18.15
2023-03-13T12:05:03.989Z,18.05
2023-03-13T12:08:10.940Z,18.15
2023-03-13T12:10:45.158Z,18.20
2023-03-13T12:13:20.065Z,18.23
2023-03-13T12:15:52.594Z,18.26
2023-03-13T12:18:20.674Z,18.25
2023-03-13T12:20:58.029Z,18.23
2023-03-13T12:23:47.257Z,18.17
2023-03-13T12:26:21.401Z,18.16
2023-03-13T12:28:52.619Z,18.19
2023-03-13T12:31:41.413Z,18.20
2023-03-13T12:34:34.327Z,18.16
2023-03-13T12:37:25.306Z,18.11
2023-03-13T12:40:01.902Z,18.18
2023-03-13T12:42:46.511Z,18.23
2023-03-13T12:45:19.882Z,18.16
2023-03-13T12:48:10.207Z,18.18
2023-03-13T12:50:55.038Z,18.24
2023-03-13T12:53:42.576Z,18.23
2023-03-13T12:56:42.114Z,18.21
2023-03-13T12:59:17.105Z,18.23
2023-03-13T13:01:48.638Z,18.22
2023-03-13T13:04:22.795Z,18.25
2023-03-13T13:06:59.660Z,18.27
2023-03-13T13:09:36.484Z,18.23
2023-03-13T13:12:25.370Z,18.26
2023-03-13T13:14:58.152Z,18.24
2023-03-13T13:17:43.618Z,18.24
2023-03-13T13:21:02.991Z,18.27
2023-03-13T13:23:37.133Z,18.26
2023-03-13T13:26:34.069Z,18.25
2023-03-13T13:29:22.496Z,18.26
2023-03-13T13:31:59.638Z,18.26
2023-03-13T13:34:31.351Z,18.26
2023-03-13T13:37:04.952Z,18.25
2023-03-13T13:39:33.375Z,18.26
2023-03-13T13:42:19.561Z,18.26
2023-03-13T13:45:17.137Z,18.30
2023-03-13T13:47:48.169Z,18.27
2023-03-13T13:50:23.612Z,18.27
2023-03-13T13:52:52.223Z,18.30
2023-03-13T13:55:39.022Z,18.28
2023-03-13T13:58:14.991Z,18.28
2023-03-13T14:00:53.592Z,18.31
2023-03-13T14:03:25.957Z,18.31
2023-03-13T14:06:01.126Z,18.35
2023-03-13T14:08:32.034Z,18.37
2023-03-13T14:11:32.564Z,18.36
2023-03-13T14:14:21.080Z,18.40
2023-03-13T14:16:51.607Z,18.40
2023-03-13T14:19:30.734Z,18.37
2023-03-13T14:22:01.937Z,18.42
2023-03-13T14:24:30.490Z,18.43
2023-03-13T14:26:58.685Z,18.45
2023-03-13T14:29:27.312Z,18.48
2023-03-13T14:31:58.023Z,18.49
2023-03-13T14:34:30.940Z,18.50
2023-03-13T14:37:17.123Z,18.51
2023-03-13T14:39:49.473Z,18.52
2023-03-13T14:42:18.676Z,18.53
2023-03-13T14:44:50.431Z,18.49
2023-03-13T14:47:24.520Z,18.53
2023-03-13T14:50:01.982Z,18.48
2023-03-13T14:52:32.049Z,18.46
2023-03-13T14:55:04.698Z,18.41
2023-03-13T14:57:34.319Z,18.46
2023-03-13T15:00:27.793Z,18.48
2023-03-13T15:03:16.878Z,18.50
2023-03-13T15:05:50.297Z,18.51
2023-03-13T15:08:21.650Z,18.52
2023-03-13T15:10:51.046Z,18.53
2023-03-13T15:13:26.116Z,18.54
2023-03-13T15:15:54.740Z,18.50
2023-03-13T15:18:25.524Z,18.48
2023-03-13T15:20:56.950Z,18.46
2023-03-13T15:23:25.883Z,18.47
2023-03-13T15:25:54.421Z,18.47
2023-03-13T15:28:23.923Z,18.46
2023-03-13T15:30:52.864Z,18.43
2023-03-13T15:33:23.689Z,18.43
2023-03-13T15:35:52.488Z,18.41
2023-03-13T15:38:23.509Z,18.42
2023-03-13T15:40:52.665Z,18.43
2023-03-13T15:43:22.049Z,18.47
2023-03-13T15:45:52.005Z,18.44
2023-03-13T15:48:25.440Z,18.48
2023-03-13T15:50:59.024Z,18.46
2023-03-13T15:53:37.794Z,18.50
2023-03-13T15:56:14.759Z,18.49
2023-03-13T15:58:43.940Z,18.49
2023-03-13T16:01:14.120Z,18.49
2023-03-13T16:03:42.616Z,18.45
2023-03-13T16:06:28.347Z,18.44
2023-03-13T16:08:56.705Z,18.45
2023-03-13T16:11:25.366Z,18.42
2023-03-13T16:13:54.105Z,18.41
2023-03-13T16:16:30.726Z,18.37
2023-03-13T16:18:59.276Z,18.38
2023-03-13T16:21:31.646Z,18.35
2023-03-13T16:23:59.921Z,18.36
2023-03-13T16:26:31.425Z,18.31
2023-03-13T16:28:59.827Z,18.32
2023-03-13T16:31:31.356Z,18.30
2023-03-13T16:34:00.336Z,18.28
2023-03-13T16:36:34.116Z,18.28
2023-03-13T16:39:05.807Z,18.25
2023-03-13T16:41:34.397Z,18.24
2023-03-13T16:44:05.477Z,18.23
2023-03-13T16:46:38.142Z,18.21
2023-03-13T16:49:07.058Z,18.17
2023-03-13T16:51:36.036Z,18.20
2023-03-13T16:54:06.928Z,18.17
2023-03-13T16:56:41.414Z,18.18
2023-03-13T16:59:15.052Z,18.16
2023-03-13T17:02:01.920Z,18.16
2023-03-13T17:04:30.113Z,18.16
2023-03-13T17:06:58.589Z,18.12
2023-03-13T17:09:26.962Z,18.13
2023-03-13T17:11:55.395Z,18.12
2023-03-13T17:14:23.532Z,18.09
2023-03-13T17:16:51.897Z,18.12
2023-03-13T17:19:20.490Z,18.13
2023-03-13T17:21:49.427Z,18.09
2023-03-13T17:24:17.621Z,18.09
2023-03-13T17:26:46.318Z,18.08
2023-03-13T17:29:17.636Z,18.08
2023-03-13T17:31:46.088Z,18.06
2023-03-13T17:34:15.593Z,18.09
2023-03-13T17:36:45.565Z,18.07
2023-03-13T17:39:14.862Z,18.07
2023-03-13T17:41:43.457Z,18.06
2023-03-13T17:44:11.565Z,18.07
2023-03-13T17:46:46.698Z,18.02
2023-03-13T17:49:17.200Z,18.06
2023-03-13T17:51:46.529Z,18.01
2023-03-13T17:54:16.043Z,18.01
2023-03-13T17:56:45.380Z,18.03
2023-03-13T17:59:16.251Z,18.01
2023-03-13T18:01:44.868Z,18.02
2023-03-13T18:04:13.419Z,18.00
2023-03-13T18:06:44.813Z,18.00
2023-03-13T18:09:21.262Z,18.01
2023-03-13T18:11:50.170Z,18.00
2023-03-13T18:14:18.306Z,17.98
2023-03-13T18:16:48.397Z,18.01
2023-03-13T18:19:25.125Z,18.00
2023-03-13T18:21:55.807Z,17.98
2023-03-13T18:24:24.091Z,17.96
2023-03-13T18:26:52.740Z,17.94
2023-03-13T18:29:29.480Z,17.97
2023-03-13T18:32:00.733Z,17.97
2023-03-13T18:34:29.715Z,17.98
2023-03-13T18:37:03.784Z,17.98
2023-03-13T18:39:32.611Z,17.98
2023-03-13T18:42:02.203Z,18.02
2023-03-13T18:44:30.292Z,17.98
2023-03-13T18:46:58.967Z,17.97
2023-03-13T18:49:27.281Z,17.95
2023-03-13T18:51:55.741Z,17.97
2023-03-13T18:54:24.070Z,17.96
2023-03-13T18:56:52.808Z,17.95
2023-03-13T18:59:22.469Z,17.95
2023-03-13T19:01:51.347Z,17.92
2023-03-13T19:04:20.396Z,17.93
2023-03-13T19:06:49.056Z,17.93
2023-03-13T19:09:41.753Z,17.90
2023-03-13T19:12:08.006Z,17.95
2023-03-13T19:14:36.134Z,17.93
2023-03-13T19:17:07.361Z,17.95
2023-03-13T19:19:35.607Z,17.94
2023-03-13T19:22:04.168Z,17.98
2023-03-13T19:24:32.231Z,17.95
2023-03-13T19:27:00.868Z,17.99
2023-03-13T19:29:29.188Z,18.00
2023-03-13T19:31:59.544Z,18.00
2023-03-13T19:34:27.758Z,17.99
2023-03-13T19:36:56.647Z,18.00
2023-03-13T19:39:26.100Z,17.96
2023-03-13T19:41:54.812Z,17.99
2023-03-13T19:44:24.382Z,17.98
2023-03-13T19:46:54.856Z,17.99
2023-03-13T19:49:23.510Z,17.98
2023-03-13T19:51:52.031Z,17.95
2023-03-13T19:54:20.350Z,17.97
2023-03-13T19:56:49.447Z,17.98
2023-03-13T19:59:23.682Z,17.98
2023-03-13T20:01:52.895Z,17.96
2023-03-13T20:04:21.138Z,17.96
2023-03-13T20:06:49.987Z,17.96
2023-03-13T20:09:20.500Z,17.95
2023-03-13T20:11:49.224Z,17.96
2023-03-13T20:14:17.434Z,17.96
2023-03-13T20:16:49.146Z,17.96
2023-03-13T20:19:17.605Z,17.96
2023-03-13T20:21:46.870Z,17.95
2023-03-13T20:24:15.023Z,17.95
2023-03-13T20:26:43.612Z,17.95
2023-03-13T20:29:11.850Z,17.95
2023-03-13T20:31:40.597Z,17.95
2023-03-13T20:34:08.825Z,17.95
2023-03-13T20:36:37.388Z,17.94
2023-03-13T20:39:05.817Z,17.95
2023-03-13T20:41:34.534Z,17.94
2023-03-13T20:44:02.823Z,17.94
2023-03-13T20:46:33.130Z,17.93
2023-03-13T20:49:02.470Z,17.94
2023-03-13T20:51:31.109Z,17.94
2023-03-13T20:53:59.981Z,17.94
2023-03-13T20:56:28.756Z,17.95
2023-03-13T20:58:57.609Z,17.93
2023-03-13T21:01:27.723Z,17.93
2023-03-13T21:03:57.076Z,17.94
2023-03-13T21:06:25.920Z,17.94
2023-03-13T21:08:57.840Z,17.92
2023-03-13T21:11:26.896Z,17.92
2023-03-13T21:13:55.746Z,17.91
2023-03-13T21:16:24.389Z,17.93
2023-03-13T21:18:53.762Z,17.92
2023-03-13T21:21:22.814Z,17.92
2023-03-13T21:23:54.205Z,17.91
2023-03-13T21:26:23.227Z,17.92
2023-03-13T21:28:53.196Z,17.91
2023-03-13T21:31:21.846Z,17.90
2023-03-13T21:33:50.600Z,17.91
2023-03-13T21:36:21.246Z,17.93
2023-03-13T21:38:50.845Z,17.91
2023-03-13T21:41:21.213Z,17.90
2023-03-13T21:43:49.436Z,17.91
2023-03-13T21:46:20.262Z,17.91
2023-03-13T21:48:48.486Z,17.91
2023-03-13T21:51:17.307Z,17.92
2023-03-13T21:53:46.199Z,17.91
2023-03-13T21:56:16.076Z,17.88
2023-03-13T21:58:45.606Z,17.87
2023-03-13T22:01:15.830Z,17.87
2023-03-13T22:03:44.321Z,17.90
2023-03-13T22:06:15.326Z,17.89
2023-03-13T22:08:44.018Z,17.90
2023-03-13T22:11:12.975Z,17.87
2023-03-13T22:13:41.544Z,17.88
2023-03-13T22:16:11.706Z,17.88
2023-03-13T22:18:42.012Z,17.88
2023-03-13T22:21:10.876Z,17.86
2023-03-13T22:23:39.174Z,17.88
2023-03-13T22:26:08.209Z,17.87
2023-03-13T22:28:36.894Z,17.87
2023-03-13T22:31:07.409Z,17.87
2023-03-13T22:33:36.083Z,17.88
2023-03-13T22:36:05.611Z,17.84
2023-03-13T22:38:39.235Z,17.86
2023-03-13T22:41:10.073Z,17.85
2023-03-13T22:43:38.487Z,17.86
2023-03-13T22:46:07.722Z,17.85
2023-03-13T22:48:36.642Z,17.85
2023-03-13T22:51:08.959Z,17.87
2023-03-13T22:53:39.507Z,17.82
2023-03-13T22:56:12.918Z,17.84
2023-03-13T22:58:41.959Z,17.85
2023-03-13T23:01:12.960Z,17.84
2023-03-13T23:03:41.702Z,17.85
2023-03-13T23:06:15.946Z,17.88
2023-03-13T23:08:44.234Z,17.85
2023-03-13T23:11:12.741Z,17.84
2023-03-13T23:13:41.039Z,17.85
2023-03-13T23:16:11.123Z,17.87
2023-03-13T23:18:40.106Z,17.84
2023-03-13T23:21:11.378Z,17.85
2023-03-13T23:23:40.046Z,17.85
2023-03-13T23:26:11.284Z,17.87
2023-03-13T23:28:40.180Z,17.86
2023-03-13T23:31:14.356Z,17.87
2023-03-13T23:33:43.211Z,17.86
2023-03-13T23:36:14.568Z,17.85
2023-03-13T23:38:43.358Z,17.87
2023-03-13T23:41:14.405Z,17.85
2023-03-13T23:43:42.609Z,17.84
2023-03-13T23:46:21.536Z,17.86
2023-03-13T23:48:53.034Z,17.83
2023-03-13T23:51:21.996Z,17.81
2023-03-13T23:53:50.173Z,17.82
2023-03-13T23:56:18.831Z,17.84
2023-03-13T23:58:46.943Z,17.82
